sensor_id;sensor_type;location;lat;lon;timestamp;P1;durP1;ratioP1;P2;durP2;ratioP2
12675;SDS011;63820;65.654;21.944;2023-08-08T00:02:06;13.68;;;10.77;;
12675;SDS011;63820;65.654;21.944;2023-08-08T00:04:50;11.60;;;10.45;;
12675;SDS011;63820;65.654;21.944;2023-08-08T00:07:34;11.05;;;9.98;;
12675;SDS011;63820;65.654;21.944;2023-08-08T00:10:18;11.02;;;10.02;;
12675;SDS011;63820;65.654;21.944;2023-08-08T00:13:02;10.63;;;9.60;;
12675;SDS011;63820;65.654;21.944;2023-08-08T00:15:47;10.67;;;9.67;;
12675;SDS011;63820;65.654;21.944;2023-08-08T00:18:31;10.95;;;10.05;;
12675;SDS011;63820;65.654;21.944;2023-08-08T00:21:15;11.38;;;10.23;;
12675;SDS011;63820;65.654;21.944;2023-08-08T00:23:59;11.27;;;10.10;;
12675;SDS011;63820;65.654;21.944;2023-08-08T00:26:43;10.67;;;9.63;;
12675;SDS011;63820;65.654;21.944;2023-08-08T00:29:27;10.77;;;9.67;;
12675;SDS011;63820;65.654;21.944;2023-08-08T00:32:11;10.60;;;9.60;;
12675;SDS011;63820;65.654;21.944;2023-08-08T00:34:55;10.82;;;9.80;;
12675;SDS011;63820;65.654;21.944;2023-08-08T00:37:39;10.57;;;8.73;;
12675;SDS011;63820;65.654;21.944;2023-08-08T00:40:23;10.13;;;9.13;;
12675;SDS011;63820;65.654;21.944;2023-08-08T00:43:07;10.17;;;9.17;;
12675;SDS011;63820;65.654;21.944;2023-08-08T00:45:51;9.63;;;8.63;;
12675;SDS011;63820;65.654;21.944;2023-08-08T00:48:36;11.10;;;9.00;;
12675;SDS011;63820;65.654;21.944;2023-08-08T00:51:20;10.07;;;9.07;;
12675;SDS011;63820;65.654;21.944;2023-08-08T00:54:05;9.50;;;8.63;;
12675;SDS011;63820;65.654;21.944;2023-08-08T00:56:50;11.10;;;9.90;;
12675;SDS011;63820;65.654;21.944;2023-08-08T00:59:35;10.68;;;9.55;;
12675;SDS011;63820;65.654;21.944;2023-08-08T01:02:19;10.27;;;9.27;;
12675;SDS011;63820;65.654;21.944;2023-08-08T01:05:03;11.20;;;9.50;;
12675;SDS011;63820;65.654;21.944;2023-08-08T01:07:57;10.27;;;9.23;;
12675;SDS011;63820;65.654;21.944;2023-08-08T01:10:49;9.57;;;8.67;;
12675;SDS011;63820;65.654;21.944;2023-08-08T01:13:33;10.43;;;9.40;;
12675;SDS011;63820;65.654;21.944;2023-08-08T01:16:19;10.50;;;9.50;;
12675;SDS011;63820;65.654;21.944;2023-08-08T01:19:04;10.53;;;9.43;;
12675;SDS011;63820;65.654;21.944;2023-08-08T01:21:52;11.00;;;9.90;;
12675;SDS011;63820;65.654;21.944;2023-08-08T01:24:37;11.13;;;9.53;;
12675;SDS011;63820;65.654;21.944;2023-08-08T01:27:22;11.53;;;9.60;;
12675;SDS011;63820;65.654;21.944;2023-08-08T01:30:07;10.37;;;9.30;;
12675;SDS011;63820;65.654;21.944;2023-08-08T01:32:51;11.10;;;10.00;;
12675;SDS011;63820;65.654;21.944;2023-08-08T01:35:37;11.13;;;10.03;;
12675;SDS011;63820;65.654;21.944;2023-08-08T01:38:32;11.33;;;10.20;;
12675;SDS011;63820;65.654;21.944;2023-08-08T01:41:19;11.30;;;10.00;;
12675;SDS011;63820;65.654;21.944;2023-08-08T01:44:05;11.67;;;10.53;;
12675;SDS011;63820;65.654;21.944;2023-08-08T01:46:50;12.13;;;10.87;;
12675;SDS011;63820;65.654;21.944;2023-08-08T01:49:34;12.60;;;11.20;;
12675;SDS011;63820;65.654;21.944;2023-08-08T01:52:18;12.10;;;10.87;;
12675;SDS011;63820;65.654;21.944;2023-08-08T01:55:02;12.43;;;11.17;;
12675;SDS011;63820;65.654;21.944;2023-08-08T01:57:46;12.43;;;11.43;;
12675;SDS011;63820;65.654;21.944;2023-08-08T02:00:30;12.83;;;11.47;;
12675;SDS011;63820;65.654;21.944;2023-08-08T02:03:14;12.77;;;11.43;;
12675;SDS011;63820;65.654;21.944;2023-08-08T02:05:58;12.87;;;11.57;;
12675;SDS011;63820;65.654;21.944;2023-08-08T02:08:42;13.37;;;11.67;;
12675;SDS011;63820;65.654;21.944;2023-08-08T02:11:26;13.17;;;11.87;;
12675;SDS011;63820;65.654;21.944;2023-08-08T02:14:10;13.50;;;11.97;;
12675;SDS011;63820;65.654;21.944;2023-08-08T02:16:54;12.20;;;11.00;;
12675;SDS011;63820;65.654;21.944;2023-08-08T02:19:39;13.43;;;12.13;;
12675;SDS011;63820;65.654;21.944;2023-08-08T02:22:23;14.00;;;11.83;;
12675;SDS011;63820;65.654;21.944;2023-08-08T02:25:07;13.47;;;12.07;;
12675;SDS011;63820;65.654;21.944;2023-08-08T02:27:51;12.00;;;10.73;;
12675;SDS011;63820;65.654;21.944;2023-08-08T02:30:35;12.90;;;11.50;;
12675;SDS011;63820;65.654;21.944;2023-08-08T02:33:19;12.87;;;10.97;;
12675;SDS011;63820;65.654;21.944;2023-08-08T02:36:03;12.33;;;11.17;;
12675;SDS011;63820;65.654;21.944;2023-08-08T02:38:48;12.47;;;11.17;;
12675;SDS011;63820;65.654;21.944;2023-08-08T02:41:33;15.07;;;10.97;;
12675;SDS011;63820;65.654;21.944;2023-08-08T02:44:17;11.73;;;10.53;;
12675;SDS011;63820;65.654;21.944;2023-08-08T02:47:03;11.97;;;10.87;;
12675;SDS011;63820;65.654;21.944;2023-08-08T02:49:47;11.73;;;10.57;;
12675;SDS011;63820;65.654;21.944;2023-08-08T02:52:31;12.30;;;10.63;;
12675;SDS011;63820;65.654;21.944;2023-08-08T02:55:15;13.63;;;10.67;;
12675;SDS011;63820;65.654;21.944;2023-08-08T02:57:59;12.57;;;11.20;;
12675;SDS011;63820;65.654;21.944;2023-08-08T03:00:43;12.20;;;9.80;;
12675;SDS011;63820;65.654;21.944;2023-08-08T03:03:27;12.43;;;10.57;;
12675;SDS011;63820;65.654;21.944;2023-08-08T03:06:12;11.17;;;9.90;;
12675;SDS011;63820;65.654;21.944;2023-08-08T03:08:56;12.77;;;10.30;;
12675;SDS011;63820;65.654;21.944;2023-08-08T03:11:40;10.90;;;9.80;;
12675;SDS011;63820;65.654;21.944;2023-08-08T03:14:25;11.57;;;10.40;;
12675;SDS011;63820;65.654;21.944;2023-08-08T03:17:09;10.77;;;9.47;;
12675;SDS011;63820;65.654;21.944;2023-08-08T03:19:53;11.40;;;10.20;;
12675;SDS011;63820;65.654;21.944;2023-08-08T03:22:37;11.40;;;10.23;;
12675;SDS011;63820;65.654;21.944;2023-08-08T03:25:22;11.50;;;10.13;;
12675;SDS011;63820;65.654;21.944;2023-08-08T03:28:06;10.27;;;9.37;;
12675;SDS011;63820;65.654;21.944;2023-08-08T03:30:50;11.13;;;9.53;;
12675;SDS011;63820;65.654;21.944;2023-08-08T03:33:34;11.27;;;10.17;;
12675;SDS011;63820;65.654;21.944;2023-08-08T03:36:18;10.90;;;9.90;;
12675;SDS011;63820;65.654;21.944;2023-08-08T03:39:03;11.33;;;9.70;;
12675;SDS011;63820;65.654;21.944;2023-08-08T03:41:47;10.93;;;8.87;;
12675;SDS011;63820;65.654;21.944;2023-08-08T03:44:31;14.10;;;9.83;;
12675;SDS011;63820;65.654;21.944;2023-08-08T03:47:15;9.57;;;8.68;;
12675;SDS011;63820;65.654;21.944;2023-08-08T03:49:59;9.77;;;8.40;;
12675;SDS011;63820;65.654;21.944;2023-08-08T03:52:44;10.57;;;9.48;;
12675;SDS011;63820;65.654;21.944;2023-08-08T03:55:27;9.23;;;8.10;;
12675;SDS011;63820;65.654;21.944;2023-08-08T03:58:11;9.18;;;8.27;;
12675;SDS011;63820;65.654;21.944;2023-08-08T04:00:55;8.38;;;7.57;;
12675;SDS011;63820;65.654;21.944;2023-08-08T04:03:40;8.15;;;7.35;;
12675;SDS011;63820;65.654;21.944;2023-08-08T04:06:24;9.43;;;7.60;;
12675;SDS011;63820;65.654;21.944;2023-08-08T04:09:08;9.35;;;7.43;;
12675;SDS011;63820;65.654;21.944;2023-08-08T04:11:52;8.93;;;7.00;;
12675;SDS011;63820;65.654;21.944;2023-08-08T04:14:36;8.85;;;7.53;;
12675;SDS011;63820;65.654;21.944;2023-08-08T04:17:20;7.93;;;7.22;;
12675;SDS011;63820;65.654;21.944;2023-08-08T04:20:05;8.85;;;7.97;;
12675;SDS011;63820;65.654;21.944;2023-08-08T04:22:50;9.27;;;8.32;;
12675;SDS011;63820;65.654;21.944;2023-08-08T04:25:34;8.93;;;7.72;;
12675;SDS011;63820;65.654;21.944;2023-08-08T04:28:18;8.82;;;8.02;;
12675;SDS011;63820;65.654;21.944;2023-08-08T04:31:03;9.30;;;8.40;;
12675;SDS011;63820;65.654;21.944;2023-08-08T04:33:47;9.43;;;8.52;;
12675;SDS011;63820;65.654;21.944;2023-08-08T04:36:31;9.40;;;8.40;;
12675;SDS011;63820;65.654;21.944;2023-08-08T04:39:15;8.75;;;7.95;;
12675;SDS011;63820;65.654;21.944;2023-08-08T04:41:59;9.27;;;8.30;;
12675;SDS011;63820;65.654;21.944;2023-08-08T04:44:44;10.27;;;9.27;;
12675;SDS011;63820;65.654;21.944;2023-08-08T04:47:28;9.50;;;8.68;;
12675;SDS011;63820;65.654;21.944;2023-08-08T04:50:12;9.95;;;8.90;;
12675;SDS011;63820;65.654;21.944;2023-08-08T04:52:56;9.88;;;8.77;;
12675;SDS011;63820;65.654;21.944;2023-08-08T04:55:40;9.43;;;8.52;;
12675;SDS011;63820;65.654;21.944;2023-08-08T04:58:24;9.30;;;8.43;;
12675;SDS011;63820;65.654;21.944;2023-08-08T05:01:08;9.13;;;8.32;;
12675;SDS011;63820;65.654;21.944;2023-08-08T05:03:55;10.20;;;8.52;;
12675;SDS011;63820;65.654;21.944;2023-08-08T05:06:39;9.55;;;8.65;;
12675;SDS011;63820;65.654;21.944;2023-08-08T05:09:23;11.05;;;9.10;;
12675;SDS011;63820;65.654;21.944;2023-08-08T05:12:10;11.55;;;8.82;;
12675;SDS011;63820;65.654;21.944;2023-08-08T05:14:54;9.88;;;8.88;;
12675;SDS011;63820;65.654;21.944;2023-08-08T05:17:38;9.68;;;8.75;;
12675;SDS011;63820;65.654;21.944;2023-08-08T05:20:22;10.25;;;8.60;;
12675;SDS011;63820;65.654;21.944;2023-08-08T05:23:06;10.05;;;9.05;;
12675;SDS011;63820;65.654;21.944;2023-08-08T05:25:51;10.05;;;9.00;;
12675;SDS011;63820;65.654;21.944;2023-08-08T05:28:35;9.25;;;8.35;;
12675;SDS011;63820;65.654;21.944;2023-08-08T05:31:19;10.40;;;8.70;;
12675;SDS011;63820;65.654;21.944;2023-08-08T05:34:03;9.48;;;8.48;;
12675;SDS011;63820;65.654;21.944;2023-08-08T05:36:47;9.65;;;8.65;;
12675;SDS011;63820;65.654;21.944;2023-08-08T05:39:31;10.05;;;8.85;;
12675;SDS011;63820;65.654;21.944;2023-08-08T05:42:15;8.88;;;7.93;;
12675;SDS011;63820;65.654;21.944;2023-08-08T05:44:59;8.55;;;7.75;;
12675;SDS011;63820;65.654;21.944;2023-08-08T05:47:43;8.57;;;7.88;;
12675;SDS011;63820;65.654;21.944;2023-08-08T05:50:27;8.63;;;7.72;;
12675;SDS011;63820;65.654;21.944;2023-08-08T05:53:12;8.52;;;7.72;;
12675;SDS011;63820;65.654;21.944;2023-08-08T05:55:56;7.97;;;7.28;;
12675;SDS011;63820;65.654;21.944;2023-08-08T05:58:40;8.13;;;7.32;;
12675;SDS011;63820;65.654;21.944;2023-08-08T06:01:24;7.97;;;7.22;;
12675;SDS011;63820;65.654;21.944;2023-08-08T06:04:08;8.23;;;7.40;;
12675;SDS011;63820;65.654;21.944;2023-08-08T06:06:51;7.85;;;7.15;;
12675;SDS011;63820;65.654;21.944;2023-08-08T06:09:36;8.30;;;7.15;;
12675;SDS011;63820;65.654;21.944;2023-08-08T06:12:21;8.00;;;7.30;;
12675;SDS011;63820;65.654;21.944;2023-08-08T06:15:05;7.45;;;6.80;;
12675;SDS011;63820;65.654;21.944;2023-08-08T06:17:50;7.40;;;6.75;;
12675;SDS011;63820;65.654;21.944;2023-08-08T06:20:34;8.13;;;7.38;;
12675;SDS011;63820;65.654;21.944;2023-08-08T06:23:18;8.35;;;7.50;;
12675;SDS011;63820;65.654;21.944;2023-08-08T06:26:02;7.30;;;6.60;;
12675;SDS011;63820;65.654;21.944;2023-08-08T06:28:46;8.18;;;7.47;;
12675;SDS011;63820;65.654;21.944;2023-08-08T06:31:31;8.23;;;6.88;;
12675;SDS011;63820;65.654;21.944;2023-08-08T06:34:15;8.27;;;7.18;;
12675;SDS011;63820;65.654;21.944;2023-08-08T06:36:59;7.63;;;6.90;;
12675;SDS011;63820;65.654;21.944;2023-08-08T06:39:43;8.25;;;7.05;;
12675;SDS011;63820;65.654;21.944;2023-08-08T06:42:27;8.10;;;7.38;;
12675;SDS011;63820;65.654;21.944;2023-08-08T06:45:11;7.57;;;6.88;;
12675;SDS011;63820;65.654;21.944;2023-08-08T06:47:55;7.95;;;7.18;;
12675;SDS011;63820;65.654;21.944;2023-08-08T06:50:40;7.97;;;7.38;;
12675;SDS011;63820;65.654;21.944;2023-08-08T06:53:24;7.90;;;7.20;;
12675;SDS011;63820;65.654;21.944;2023-08-08T06:56:08;7.80;;;7.05;;
12675;SDS011;63820;65.654;21.944;2023-08-08T06:58:53;8.23;;;7.45;;
12675;SDS011;63820;65.654;21.944;2023-08-08T07:01:37;8.13;;;7.45;;
12675;SDS011;63820;65.654;21.944;2023-08-08T07:04:21;7.75;;;6.97;;
12675;SDS011;63820;65.654;21.944;2023-08-08T07:07:06;8.50;;;7.40;;
12675;SDS011;63820;65.654;21.944;2023-08-08T07:09:50;7.60;;;6.95;;
12675;SDS011;63820;65.654;21.944;2023-08-08T07:12:34;7.63;;;6.93;;
12675;SDS011;63820;65.654;21.944;2023-08-08T07:15:19;7.57;;;6.88;;
12675;SDS011;63820;65.654;21.944;2023-08-08T07:18:03;7.57;;;6.90;;
12675;SDS011;63820;65.654;21.944;2023-08-08T07:20:48;7.82;;;7.05;;
12675;SDS011;63820;65.654;21.944;2023-08-08T07:23:33;7.70;;;7.10;;
12675;SDS011;63820;65.654;21.944;2023-08-08T07:26:17;7.78;;;7.07;;
12675;SDS011;63820;65.654;21.944;2023-08-08T07:29:01;7.35;;;6.75;;
12675;SDS011;63820;65.654;21.944;2023-08-08T07:31:45;8.05;;;7.15;;
12675;SDS011;63820;65.654;21.944;2023-08-08T07:34:29;7.63;;;6.93;;
12675;SDS011;63820;65.654;21.944;2023-08-08T07:37:14;7.85;;;7.07;;
12675;SDS011;63820;65.654;21.944;2023-08-08T07:39:58;7.88;;;7.28;;
12675;SDS011;63820;65.654;21.944;2023-08-08T07:42:42;8.40;;;7.40;;
12675;SDS011;63820;65.654;21.944;2023-08-08T07:45:26;7.53;;;6.80;;
12675;SDS011;63820;65.654;21.944;2023-08-08T07:48:10;8.50;;;7.65;;
12675;SDS011;63820;65.654;21.944;2023-08-08T07:50:54;7.70;;;7.10;;
12675;SDS011;63820;65.654;21.944;2023-08-08T07:53:38;8.27;;;7.50;;
12675;SDS011;63820;65.654;21.944;2023-08-08T07:56:21;8.25;;;7.65;;
12675;SDS011;63820;65.654;21.944;2023-08-08T07:59:06;8.23;;;7.35;;
12675;SDS011;63820;65.654;21.944;2023-08-08T08:01:50;8.23;;;7.60;;
12675;SDS011;63820;65.654;21.944;2023-08-08T08:04:34;7.65;;;7.05;;
12675;SDS011;63820;65.654;21.944;2023-08-08T08:07:19;8.73;;;7.75;;
12675;SDS011;63820;65.654;21.944;2023-08-08T08:10:03;7.90;;;7.10;;
12675;SDS011;63820;65.654;21.944;2023-08-08T08:12:49;8.13;;;7.32;;
12675;SDS011;63820;65.654;21.944;2023-08-08T08:15:33;8.23;;;7.45;;
12675;SDS011;63820;65.654;21.944;2023-08-08T08:18:18;7.97;;;7.28;;
12675;SDS011;63820;65.654;21.944;2023-08-08T08:21:03;8.38;;;7.65;;
12675;SDS011;63820;65.654;21.944;2023-08-08T08:23:50;7.93;;;7.15;;
12675;SDS011;63820;65.654;21.944;2023-08-08T08:26:34;7.70;;;7.10;;
12675;SDS011;63820;65.654;21.944;2023-08-08T08:29:19;8.00;;;7.20;;
12675;SDS011;63820;65.654;21.944;2023-08-08T08:32:04;7.30;;;6.70;;
12675;SDS011;63820;65.654;21.944;2023-08-08T08:34:48;7.57;;;6.93;;
12675;SDS011;63820;65.654;21.944;2023-08-08T08:37:32;7.78;;;7.18;;
12675;SDS011;63820;65.654;21.944;2023-08-08T08:40:17;7.75;;;7.13;;
12675;SDS011;63820;65.654;21.944;2023-08-08T08:43:02;7.93;;;7.18;;
12675;SDS011;63820;65.654;21.944;2023-08-08T08:45:49;7.50;;;6.80;;
12675;SDS011;63820;65.654;21.944;2023-08-08T08:48:35;7.80;;;7.20;;
12675;SDS011;63820;65.654;21.944;2023-08-08T08:51:19;7.88;;;7.28;;
12675;SDS011;63820;65.654;21.944;2023-08-08T08:54:04;7.55;;;6.85;;
12675;SDS011;63820;65.654;21.944;2023-08-08T08:56:49;7.63;;;7.03;;
12675;SDS011;63820;65.654;21.944;2023-08-08T08:59:34;7.70;;;7.10;;
12675;SDS011;63820;65.654;21.944;2023-08-08T09:02:19;7.85;;;7.18;;
12675;SDS011;63820;65.654;21.944;2023-08-08T09:05:03;7.80;;;7.10;;
12675;SDS011;63820;65.654;21.944;2023-08-08T09:07:48;7.80;;;7.10;;
12675;SDS011;63820;65.654;21.944;2023-08-08T09:10:32;8.25;;;7.45;;
12675;SDS011;63820;65.654;21.944;2023-08-08T09:13:19;8.07;;;7.38;;
12675;SDS011;63820;65.654;21.944;2023-08-08T09:16:05;7.90;;;7.20;;
12675;SDS011;63820;65.654;21.944;2023-08-08T09:18:50;7.95;;;7.22;;
12675;SDS011;63820;65.654;21.944;2023-08-08T09:21:35;8.10;;;7.30;;
12675;SDS011;63820;65.654;21.944;2023-08-08T09:24:19;7.55;;;6.95;;
12675;SDS011;63820;65.654;21.944;2023-08-08T09:27:04;7.88;;;7.10;;
12675;SDS011;63820;65.654;21.944;2023-08-08T09:29:49;7.82;;;7.22;;
12675;SDS011;63820;65.654;21.944;2023-08-08T09:32:34;7.97;;;7.28;;
12675;SDS011;63820;65.654;21.944;2023-08-08T09:35:18;7.43;;;6.72;;
12675;SDS011;63820;65.654;21.944;2023-08-08T09:38:03;8.60;;;7.28;;
12675;SDS011;63820;65.654;21.944;2023-08-08T09:40:47;7.68;;;6.97;;
12675;SDS011;63820;65.654;21.944;2023-08-08T09:43:33;8.25;;;7.45;;
12675;SDS011;63820;65.654;21.944;2023-08-08T09:46:18;8.15;;;6.85;;
12675;SDS011;63820;65.654;21.944;2023-08-08T09:49:04;7.72;;;7.13;;
12675;SDS011;63820;65.654;21.944;2023-08-08T09:51:49;8.05;;;7.35;;
12675;SDS011;63820;65.654;21.944;2023-08-08T09:54:34;8.05;;;7.40;;
12675;SDS011;63820;65.654;21.944;2023-08-08T09:57:20;7.53;;;6.75;;
12675;SDS011;63820;65.654;21.944;2023-08-08T10:00:06;8.02;;;7.22;;
12675;SDS011;63820;65.654;21.944;2023-08-08T10:02:56;7.75;;;7.15;;
12675;SDS011;63820;65.654;21.944;2023-08-08T10:05:40;7.70;;;7.10;;
12675;SDS011;63820;65.654;21.944;2023-08-08T10:08:24;7.75;;;7.15;;
12675;SDS011;63820;65.654;21.944;2023-08-08T10:11:09;8.02;;;7.22;;
12675;SDS011;63820;65.654;21.944;2023-08-08T10:13:55;7.88;;;6.85;;
12675;SDS011;63820;65.654;21.944;2023-08-08T10:16:39;8.45;;;6.95;;
12675;SDS011;63820;65.654;21.944;2023-08-08T10:19:27;8.00;;;6.78;;
12675;SDS011;63820;65.654;21.944;2023-08-08T10:22:11;8.02;;;6.80;;
12675;SDS011;63820;65.654;21.944;2023-08-08T10:24:55;8.10;;;7.28;;
12675;SDS011;63820;65.654;21.944;2023-08-08T10:27:40;7.60;;;6.72;;
12675;SDS011;63820;65.654;21.944;2023-08-08T10:30:24;7.50;;;6.70;;
12675;SDS011;63820;65.654;21.944;2023-08-08T10:33:14;8.32;;;7.63;;
12675;SDS011;63820;65.654;21.944;2023-08-08T10:36:07;7.60;;;6.90;;
12675;SDS011;63820;65.654;21.944;2023-08-08T10:38:51;7.50;;;6.78;;
12675;SDS011;63820;65.654;21.944;2023-08-08T10:41:43;7.38;;;6.72;;
12675;SDS011;63820;65.654;21.944;2023-08-08T10:44:29;7.50;;;6.80;;
12675;SDS011;63820;65.654;21.944;2023-08-08T10:47:13;7.35;;;6.70;;
12675;SDS011;63820;65.654;21.944;2023-08-08T10:52:54;7.38;;;6.70;;
12675;SDS011;63820;65.654;21.944;2023-08-08T10:55:42;7.70;;;7.05;;
12675;SDS011;63820;65.654;21.944;2023-08-08T10:58:38;7.20;;;6.60;;
12675;SDS011;63820;65.654;21.944;2023-08-08T11:01:27;7.65;;;6.97;;
12675;SDS011;63820;65.654;21.944;2023-08-08T11:04:12;6.97;;;6.28;;
12675;SDS011;63820;65.654;21.944;2023-08-08T11:06:56;7.47;;;6.68;;
12675;SDS011;63820;65.654;21.944;2023-08-08T11:09:42;7.25;;;6.60;;
12675;SDS011;63820;65.654;21.944;2023-08-08T11:12:27;7.00;;;6.47;;
12675;SDS011;63820;65.654;21.944;2023-08-08T11:15:11;8.00;;;7.10;;
12675;SDS011;63820;65.654;21.944;2023-08-08T11:17:55;7.70;;;7.10;;
12675;SDS011;63820;65.654;21.944;2023-08-08T11:20:40;7.65;;;6.95;;
12675;SDS011;63820;65.654;21.944;2023-08-08T11:23:24;7.82;;;7.13;;
12675;SDS011;63820;65.654;21.944;2023-08-08T11:26:08;7.78;;;7.18;;
12675;SDS011;63820;65.654;21.944;2023-08-08T11:28:52;8.18;;;7.43;;
12675;SDS011;63820;65.654;21.944;2023-08-08T11:31:36;7.55;;;6.85;;
12675;SDS011;63820;65.654;21.944;2023-08-08T11:34:21;7.40;;;6.75;;
12675;SDS011;63820;65.654;21.944;2023-08-08T11:37:05;8.15;;;7.07;;
12675;SDS011;63820;65.654;21.944;2023-08-08T11:39:50;7.07;;;6.38;;
12675;SDS011;63820;65.654;21.944;2023-08-08T11:42:34;7.72;;;6.95;;
12675;SDS011;63820;65.654;21.944;2023-08-08T11:45:19;7.32;;;6.72;;
12675;SDS011;63820;65.654;21.944;2023-08-08T11:48:03;8.00;;;7.20;;
12675;SDS011;63820;65.654;21.944;2023-08-08T11:50:48;7.28;;;6.57;;
12675;SDS011;63820;65.654;21.944;2023-08-08T11:53:33;7.75;;;7.15;;
12675;SDS011;63820;65.654;21.944;2023-08-08T11:56:21;7.32;;;6.63;;
12675;SDS011;63820;65.654;21.944;2023-08-08T11:59:05;7.78;;;7.07;;
12675;SDS011;63820;65.654;21.944;2023-08-08T12:01:51;7.60;;;7.00;;
12675;SDS011;63820;65.654;21.944;2023-08-08T12:04:36;7.50;;;6.88;;
12675;SDS011;63820;65.654;21.944;2023-08-08T12:07:21;7.95;;;7.25;;
12675;SDS011;63820;65.654;21.944;2023-08-08T12:10:06;7.30;;;6.63;;
12675;SDS011;63820;65.654;21.944;2023-08-08T12:12:57;7.50;;;6.80;;
12675;SDS011;63820;65.654;21.944;2023-08-08T12:15:43;8.07;;;7.20;;
12675;SDS011;63820;65.654;21.944;2023-08-08T12:18:27;7.70;;;7.05;;
12675;SDS011;63820;65.654;21.944;2023-08-08T12:21:13;7.47;;;6.88;;
12675;SDS011;63820;65.654;21.944;2023-08-08T12:23:57;7.22;;;6.53;;
12675;SDS011;63820;65.654;21.944;2023-08-08T12:26:42;8.00;;;7.15;;
12675;SDS011;63820;65.654;21.944;2023-08-08T12:29:27;7.25;;;6.55;;
12675;SDS011;63820;65.654;21.944;2023-08-08T12:32:11;7.20;;;6.32;;
12675;SDS011;63820;65.654;21.944;2023-08-08T12:34:55;6.68;;;6.15;;
12675;SDS011;63820;65.654;21.944;2023-08-08T12:37:40;7.10;;;6.35;;
12675;SDS011;63820;65.654;21.944;2023-08-08T12:40:23;6.78;;;6.18;;
12675;SDS011;63820;65.654;21.944;2023-08-08T12:43:09;7.05;;;6.45;;
12675;SDS011;63820;65.654;21.944;2023-08-08T12:45:56;7.25;;;6.75;;
12675;SDS011;63820;65.654;21.944;2023-08-08T12:48:40;7.00;;;6.38;;
12675;SDS011;63820;65.654;21.944;2023-08-08T12:51:24;6.70;;;6.18;;
12675;SDS011;63820;65.654;21.944;2023-08-08T12:54:09;6.85;;;6.10;;
12675;SDS011;63820;65.654;21.944;2023-08-08T12:56:53;6.63;;;6.03;;
12675;SDS011;63820;65.654;21.944;2023-08-08T12:59:37;6.25;;;5.72;;
12675;SDS011;63820;65.654;21.944;2023-08-08T13:02:21;6.70;;;6.20;;
12675;SDS011;63820;65.654;21.944;2023-08-08T13:05:05;7.00;;;6.40;;
12675;SDS011;63820;65.654;21.944;2023-08-08T13:07:51;6.40;;;5.70;;
12675;SDS011;63820;65.654;21.944;2023-08-08T13:10:35;6.57;;;6.07;;
12675;SDS011;63820;65.654;21.944;2023-08-08T13:13:20;6.30;;;5.70;;
12675;SDS011;63820;65.654;21.944;2023-08-08T13:16:09;11.98;;;6.22;;
12675;SDS011;63820;65.654;21.944;2023-08-08T13:18:54;6.90;;;5.78;;
12675;SDS011;63820;65.654;21.944;2023-08-08T13:21:38;6.15;;;5.65;;
12675;SDS011;63820;65.654;21.944;2023-08-08T13:24:23;7.70;;;6.43;;
12675;SDS011;63820;65.654;21.944;2023-08-08T13:27:07;6.75;;;6.15;;
12675;SDS011;63820;65.654;21.944;2023-08-08T13:29:51;6.80;;;6.20;;
12675;SDS011;63820;65.654;21.944;2023-08-08T13:32:35;6.80;;;6.13;;
12675;SDS011;63820;65.654;21.944;2023-08-08T13:35:19;6.30;;;5.70;;
12675;SDS011;63820;65.654;21.944;2023-08-08T13:38:03;6.60;;;6.00;;
12675;SDS011;63820;65.654;21.944;2023-08-08T13:40:48;6.93;;;6.28;;
12675;SDS011;63820;65.654;21.944;2023-08-08T13:43:32;6.78;;;6.18;;
12675;SDS011;63820;65.654;21.944;2023-08-08T13:46:15;6.85;;;6.25;;
12675;SDS011;63820;65.654;21.944;2023-08-08T13:49:00;6.85;;;6.20;;
12675;SDS011;63820;65.654;21.944;2023-08-08T13:51:44;6.50;;;6.00;;
12675;SDS011;63820;65.654;21.944;2023-08-08T13:54:28;6.60;;;6.00;;
12675;SDS011;63820;65.654;21.944;2023-08-08T13:57:12;7.38;;;6.68;;
12675;SDS011;63820;65.654;21.944;2023-08-08T13:59:57;6.68;;;6.18;;
12675;SDS011;63820;65.654;21.944;2023-08-08T14:02:41;6.57;;;6.00;;
12675;SDS011;63820;65.654;21.944;2023-08-08T14:05:25;7.22;;;6.63;;
12675;SDS011;63820;65.654;21.944;2023-08-08T14:08:10;6.45;;;5.50;;
12675;SDS011;63820;65.654;21.944;2023-08-08T14:10:54;8.15;;;6.20;;
12675;SDS011;63820;65.654;21.944;2023-08-08T14:13:38;6.10;;;5.60;;
12675;SDS011;63820;65.654;21.944;2023-08-08T14:16:24;6.50;;;5.80;;
12675;SDS011;63820;65.654;21.944;2023-08-08T14:19:09;6.40;;;5.90;;
12675;SDS011;63820;65.654;21.944;2023-08-08T14:21:53;6.25;;;5.65;;
12675;SDS011;63820;65.654;21.944;2023-08-08T14:24:37;5.78;;;5.38;;
12675;SDS011;63820;65.654;21.944;2023-08-08T14:27:20;8.25;;;5.70;;
12675;SDS011;63820;65.654;21.944;2023-08-08T14:30:05;6.15;;;5.47;;
12675;SDS011;63820;65.654;21.944;2023-08-08T14:32:50;7.32;;;5.75;;
12675;SDS011;63820;65.654;21.944;2023-08-08T14:35:35;6.05;;;5.60;;
12675;SDS011;63820;65.654;21.944;2023-08-08T14:38:23;6.80;;;5.30;;
12675;SDS011;63820;65.654;21.944;2023-08-08T14:41:08;6.22;;;5.57;;
12675;SDS011;63820;65.654;21.944;2023-08-08T14:43:52;7.85;;;5.45;;
12675;SDS011;63820;65.654;21.944;2023-08-08T14:46:35;8.23;;;5.30;;
12675;SDS011;63820;65.654;21.944;2023-08-08T14:49:19;5.55;;;5.05;;
12675;SDS011;63820;65.654;21.944;2023-08-08T14:52:03;5.05;;;4.65;;
12675;SDS011;63820;65.654;21.944;2023-08-08T14:54:48;5.63;;;5.20;;
12675;SDS011;63820;65.654;21.944;2023-08-08T14:57:33;5.63;;;5.13;;
12675;SDS011;63820;65.654;21.944;2023-08-08T15:00:18;7.28;;;4.95;;
12675;SDS011;63820;65.654;21.944;2023-08-08T15:03:02;6.57;;;5.40;;
12675;SDS011;63820;65.654;21.944;2023-08-08T15:05:46;6.07;;;5.47;;
12675;SDS011;63820;65.654;21.944;2023-08-08T15:08:32;9.30;;;5.40;;
12675;SDS011;63820;65.654;21.944;2023-08-08T15:11:16;7.25;;;5.78;;
12675;SDS011;63820;65.654;21.944;2023-08-08T15:14:00;7.22;;;5.50;;
12675;SDS011;63820;65.654;21.944;2023-08-08T15:16:51;7.63;;;5.80;;
12675;SDS011;63820;65.654;21.944;2023-08-08T15:19:36;7.00;;;5.90;;
12675;SDS011;63820;65.654;21.944;2023-08-08T15:22:21;6.80;;;6.10;;
12675;SDS011;63820;65.654;21.944;2023-08-08T15:25:05;6.10;;;5.50;;
12675;SDS011;63820;65.654;21.944;2023-08-08T15:27:50;6.18;;;5.03;;
12675;SDS011;63820;65.654;21.944;2023-08-08T15:30:34;6.43;;;5.22;;
12675;SDS011;63820;65.654;21.944;2023-08-08T15:33:19;5.95;;;5.28;;
12675;SDS011;63820;65.654;21.944;2023-08-08T15:36:03;7.45;;;5.80;;
12675;SDS011;63820;65.654;21.944;2023-08-08T15:38:49;6.22;;;5.70;;
12675;SDS011;63820;65.654;21.944;2023-08-08T15:41:33;6.30;;;5.70;;
12675;SDS011;63820;65.654;21.944;2023-08-08T15:44:17;6.60;;;5.88;;
12675;SDS011;63820;65.654;21.944;2023-08-08T15:47:01;6.22;;;5.55;;
12675;SDS011;63820;65.654;21.944;2023-08-08T15:49:45;9.38;;;6.20;;
12675;SDS011;63820;65.654;21.944;2023-08-08T15:52:29;6.50;;;5.90;;
12675;SDS011;63820;65.654;21.944;2023-08-08T15:55:13;7.05;;;6.13;;
12675;SDS011;63820;65.654;21.944;2023-08-08T15:57:57;9.32;;;6.10;;
12675;SDS011;63820;65.654;21.944;2023-08-08T16:00:41;7.93;;;6.00;;
12675;SDS011;63820;65.654;21.944;2023-08-08T16:03:26;6.70;;;6.05;;
12675;SDS011;63820;65.654;21.944;2023-08-08T16:06:10;8.40;;;5.65;;
12675;SDS011;63820;65.654;21.944;2023-08-08T16:08:54;7.47;;;6.50;;
12675;SDS011;63820;65.654;21.944;2023-08-08T16:11:38;7.97;;;6.50;;
12675;SDS011;63820;65.654;21.944;2023-08-08T16:14:21;6.75;;;6.15;;